BWA240 TGPY-TBPB
Flight info
| Callsign | BWA240 |
|---|---|
| Flight time | N/A |
| Altitude | 13000 |
| Route | RABOT DCT LEXAS A561 RAKAN DCT OLIDO |
| Aircraft | AT76/M-SDFGIRY/S |
Departure
| Time | 2026-04-22 18:38 |
|---|---|
| Airport | Maurice Bishop International Airport (TGPY) |
Arrival
| Time | N/A |
|---|---|
| Airport | Grantley Adams International Airport (TBPB) |
| Time | Latitude | Longitude | Altitude | Speed | Heading |
|---|---|---|---|---|---|
| 2026-04-22 18:09 | 12.00662 | -61.78619 | 39 ft | 0 kts | 4° |
| 2026-04-22 18:30 | 12.00664 | -61.78616 | 39 ft | 0 kts | 42° |
| 2026-04-22 18:31 | 12.00663 | -61.78612 | 39 ft | 3 kts | 84° |
| 2026-04-22 18:31 | 12.00634 | -61.78591 | 38 ft | 6 kts | 186° |
| 2026-04-22 18:31 | 12.00587 | -61.78598 | 39 ft | 7 kts | 186° |
| 2026-04-22 18:31 | 12.00537 | -61.78601 | 39 ft | 7 kts | 181° |
| 2026-04-22 18:32 | 12.00491 | -61.78602 | 40 ft | 3 kts | 179° |
| 2026-04-22 18:32 | 12.00490 | -61.78602 | 40 ft | 0 kts | 179° |
| 2026-04-22 18:34 | 12.00456 | -61.78603 | 41 ft | 11 kts | 183° |
| 2026-04-22 18:35 | 12.00407 | -61.78685 | 42 ft | 22 kts | 270° |
| 2026-04-22 18:35 | 12.00409 | -61.78883 | 41 ft | 32 kts | 270° |
| 2026-04-22 18:35 | 12.00411 | -61.79110 | 40 ft | 33 kts | 270° |
| 2026-04-22 18:35 | 12.00413 | -61.79342 | 36 ft | 32 kts | 270° |
| 2026-04-22 18:36 | 12.00414 | -61.79584 | 32 ft | 36 kts | 269° |
| 2026-04-22 18:36 | 12.00419 | -61.79795 | 28 ft | 18 kts | 291° |
| 2026-04-22 18:36 | 12.00443 | -61.79863 | 28 ft | 2 kts | 214° |
| 2026-04-22 18:36 | 12.00416 | -61.79839 | 27 ft | 10 kts | 97° |
| 2026-04-22 18:37 | 12.00415 | -61.79730 | 29 ft | 27 kts | 91° |
| 2026-04-22 18:37 | 12.00412 | -61.79335 | 36 ft | 87 kts | 90° |
| 2026-04-22 18:37 | 12.00409 | -61.78516 | 43 ft | 139 kts | 90° |
| 2026-04-22 18:37 | 12.00401 | -61.77524 | 454 ft | 146 kts | 95° |
| 2026-04-22 18:38 | 12.00073 | -61.76529 | 950 ft | 151 kts | 117° |
| 2026-04-22 18:38 | 11.99478 | -61.75610 | 1459 ft | 160 kts | 123° |
| 2026-04-22 18:38 | 11.98982 | -61.74578 | 1987 ft | 164 kts | 102° |
| 2026-04-22 18:39 | 11.99394 | -61.72166 | 2772 ft | 191 kts | 74° |
| 2026-04-22 18:39 | 11.99776 | -61.70824 | 3109 ft | 204 kts | 73° |
| 2026-04-22 18:39 | 12.00166 | -61.69388 | 3456 ft | 213 kts | 79° |
| 2026-04-22 18:39 | 12.00342 | -61.67875 | 3790 ft | 220 kts | 86° |
| 2026-04-22 18:40 | 12.00682 | -61.66354 | 4142 ft | 221 kts | 62° |
| 2026-04-22 18:40 | 12.01523 | -61.65013 | 4485 ft | 226 kts | 56° |
| 2026-04-22 18:40 | 12.02431 | -61.63683 | 4821 ft | 232 kts | 55° |
| 2026-04-22 18:40 | 12.03352 | -61.62326 | 5154 ft | 235 kts | 56° |
| 2026-04-22 18:41 | 12.04267 | -61.60916 | 5494 ft | 239 kts | 57° |
| 2026-04-22 18:41 | 12.05169 | -61.59471 | 5841 ft | 241 kts | 57° |
| 2026-04-22 18:41 | 12.06063 | -61.58034 | 6181 ft | 243 kts | 57° |
| 2026-04-22 18:41 | 12.06966 | -61.56580 | 6515 ft | 244 kts | 57° |
| 2026-04-22 18:42 | 12.07882 | -61.55101 | 6840 ft | 245 kts | 57° |
| 2026-04-22 18:42 | 12.08809 | -61.53609 | 7172 ft | 247 kts | 57° |
| 2026-04-22 18:42 | 12.09725 | -61.52137 | 7503 ft | 248 kts | 57° |
| 2026-04-22 18:42 | 12.10652 | -61.50642 | 7834 ft | 249 kts | 57° |
| 2026-04-22 18:43 | 12.11581 | -61.49148 | 8178 ft | 250 kts | 57° |
| 2026-04-22 18:43 | 12.12519 | -61.47633 | 8522 ft | 252 kts | 57° |
| 2026-04-22 18:43 | 12.13449 | -61.46134 | 8866 ft | 253 kts | 57° |
| 2026-04-22 18:43 | 12.14393 | -61.44614 | 9216 ft | 253 kts | 57° |
| 2026-04-22 18:44 | 12.15346 | -61.43080 | 9495 ft | 257 kts | 56° |
| 2026-04-22 18:44 | 12.16302 | -61.41539 | 9778 ft | 260 kts | 57° |
| 2026-04-22 18:44 | 12.17273 | -61.39976 | 10033 ft | 262 kts | 57° |
| 2026-04-22 18:44 | 12.18261 | -61.38387 | 10288 ft | 264 kts | 57° |
| 2026-04-22 18:45 | 12.19247 | -61.36794 | 10548 ft | 265 kts | 57° |
| 2026-04-22 18:45 | 12.20232 | -61.35206 | 10801 ft | 266 kts | 57° |
| 2026-04-22 18:45 | 12.21228 | -61.33605 | 11058 ft | 267 kts | 57° |
| 2026-04-22 18:45 | 12.22216 | -61.32007 | 11308 ft | 267 kts | 59° |
| 2026-04-22 18:46 | 12.23047 | -61.30294 | 11575 ft | 267 kts | 66° |
| 2026-04-22 18:46 | 12.23775 | -61.28567 | 11843 ft | 268 kts | 66° |
| 2026-04-22 18:46 | 12.24526 | -61.26809 | 12093 ft | 270 kts | 65° |
| 2026-04-22 18:46 | 12.25330 | -61.25055 | 12288 ft | 273 kts | 64° |
| 2026-04-22 18:47 | 12.26161 | -61.23301 | 12485 ft | 276 kts | 64° |
| 2026-04-22 18:47 | 12.26990 | -61.21535 | 12682 ft | 278 kts | 64° |
| 2026-04-22 18:47 | 12.27839 | -61.19731 | 12822 ft | 281 kts | 64° |
| 2026-04-22 18:47 | 12.28688 | -61.17921 | 12883 ft | 287 kts | 64° |
| 2026-04-22 18:48 | 12.29562 | -61.16066 | 12913 ft | 292 kts | 64° |
| 2026-04-22 18:48 | 12.30441 | -61.14188 | 12928 ft | 296 kts | 64° |
| 2026-04-22 18:48 | 12.31337 | -61.12282 | 12937 ft | 300 kts | 64° |
| 2026-04-22 18:48 | 12.32241 | -61.10351 | 12937 ft | 302 kts | 64° |
| 2026-04-22 18:49 | 12.33152 | -61.08412 | 12937 ft | 304 kts | 64° |
| 2026-04-22 18:49 | 12.34076 | -61.06440 | 12939 ft | 306 kts | 64° |
| 2026-04-22 18:49 | 12.34989 | -61.04490 | 12937 ft | 306 kts | 63° |
| 2026-04-22 18:49 | 12.35909 | -61.02530 | 12940 ft | 307 kts | 64° |
| 2026-04-22 18:50 | 12.36836 | -61.00545 | 12940 ft | 308 kts | 64° |
| 2026-04-22 18:50 | 12.37762 | -60.98577 | 12938 ft | 308 kts | 64° |
| 2026-04-22 18:50 | 12.38685 | -60.96603 | 12941 ft | 309 kts | 64° |
| 2026-04-22 18:50 | 12.39617 | -60.94611 | 12936 ft | 309 kts | 64° |
| 2026-04-22 18:51 | 12.40544 | -60.92634 | 12940 ft | 309 kts | 64° |
| 2026-04-22 18:51 | 12.41478 | -60.90636 | 12938 ft | 309 kts | 64° |
| 2026-04-22 18:51 | 12.42402 | -60.88658 | 12937 ft | 309 kts | 64° |
| 2026-04-22 18:51 | 12.43338 | -60.86660 | 12940 ft | 310 kts | 64° |
| 2026-04-22 18:52 | 12.44259 | -60.84687 | 12938 ft | 310 kts | 64° |
| 2026-04-22 18:52 | 12.45192 | -60.82699 | 12938 ft | 310 kts | 64° |
| 2026-04-22 18:52 | 12.46127 | -60.80697 | 12937 ft | 310 kts | 64° |
| 2026-04-22 18:52 | 12.47054 | -60.78718 | 12935 ft | 309 kts | 63° |
| 2026-04-22 18:53 | 12.47970 | -60.76755 | 12934 ft | 309 kts | 64° |
| 2026-04-22 18:53 | 12.48904 | -60.74753 | 12941 ft | 309 kts | 63° |
| 2026-04-22 18:53 | 12.49830 | -60.72775 | 12938 ft | 309 kts | 64° |
| 2026-04-22 18:53 | 12.50764 | -60.70770 | 12941 ft | 309 kts | 64° |
| 2026-04-22 18:54 | 12.51692 | -60.68786 | 12936 ft | 309 kts | 64° |
| 2026-04-22 18:54 | 12.52605 | -60.66825 | 12940 ft | 309 kts | 64° |
| 2026-04-22 18:54 | 12.53540 | -60.64823 | 12940 ft | 309 kts | 64° |
| 2026-04-22 18:54 | 12.54468 | -60.62832 | 12939 ft | 310 kts | 64° |
| 2026-04-22 18:55 | 12.55388 | -60.60862 | 12939 ft | 309 kts | 63° |
| 2026-04-22 18:55 | 12.56325 | -60.58854 | 12936 ft | 310 kts | 64° |
| 2026-04-22 18:55 | 12.57246 | -60.56873 | 12939 ft | 310 kts | 64° |
| 2026-04-22 18:55 | 12.58167 | -60.54899 | 12940 ft | 309 kts | 64° |
| 2026-04-22 18:56 | 12.59128 | -60.52909 | 12939 ft | 309 kts | 62° |
| 2026-04-22 18:56 | 12.60135 | -60.50982 | 12938 ft | 309 kts | 60° |
| 2026-04-22 18:56 | 12.61161 | -60.49042 | 12940 ft | 309 kts | 61° |
| 2026-04-22 18:56 | 12.62172 | -60.47098 | 12938 ft | 309 kts | 61° |
| 2026-04-22 18:57 | 12.63172 | -60.45159 | 12935 ft | 309 kts | 61° |
| 2026-04-22 18:57 | 12.64173 | -60.43237 | 12937 ft | 309 kts | 61° |
| 2026-04-22 18:57 | 12.65175 | -60.41300 | 12941 ft | 309 kts | 61° |
| 2026-04-22 18:57 | 12.66190 | -60.39346 | 12940 ft | 309 kts | 61° |
| 2026-04-22 18:58 | 12.66859 | -60.38056 | 12936 ft | 309 kts | 61° |
| 2026-04-22 18:58 | 12.67862 | -60.36117 | 12937 ft | 309 kts | 61° |
| 2026-04-22 18:58 | 12.69205 | -60.33531 | 12938 ft | 309 kts | 61° |
| 2026-04-22 18:58 | 12.70218 | -60.31574 | 12939 ft | 309 kts | 61° |
| 2026-04-22 18:59 | 12.71226 | -60.29637 | 12939 ft | 309 kts | 61° |
| 2026-04-22 18:59 | 12.71899 | -60.28336 | 12937 ft | 309 kts | 61° |
| 2026-04-22 18:59 | 12.73226 | -60.25770 | 12934 ft | 309 kts | 61° |
| 2026-04-22 18:59 | 12.73900 | -60.24473 | 12935 ft | 308 kts | 61° |
| 2026-04-22 19:00 | 12.75236 | -60.21889 | 12938 ft | 308 kts | 61° |
| 2026-04-22 19:00 | 12.75900 | -60.20607 | 12940 ft | 308 kts | 61° |
| 2026-04-22 19:00 | 12.76908 | -60.18658 | 12940 ft | 303 kts | 61° |
| 2026-04-22 19:00 | 12.77882 | -60.16773 | 12938 ft | 295 kts | 61° |
| 2026-04-22 19:01 | 12.78832 | -60.14943 | 12832 ft | 287 kts | 61° |
| 2026-04-22 19:01 | 12.79765 | -60.13138 | 12592 ft | 282 kts | 61° |
| 2026-04-22 19:01 | 12.80670 | -60.11389 | 12377 ft | 278 kts | 61° |
| 2026-04-22 19:01 | 12.81574 | -60.09645 | 12156 ft | 276 kts | 61° |
| 2026-04-22 19:02 | 12.82468 | -60.07909 | 11939 ft | 273 kts | 61° |
| 2026-04-22 19:02 | 12.83350 | -60.06204 | 11722 ft | 271 kts | 61° |
| 2026-04-22 19:02 | 12.84227 | -60.04506 | 11514 ft | 270 kts | 61° |
| 2026-04-22 19:02 | 12.85096 | -60.02820 | 11288 ft | 269 kts | 61° |
| 2026-04-22 19:03 | 12.85973 | -60.01124 | 11068 ft | 268 kts | 61° |
| 2026-04-22 19:03 | 12.86852 | -59.99422 | 10730 ft | 266 kts | 61° |
| 2026-04-22 19:03 | 12.87711 | -59.97756 | 10383 ft | 265 kts | 62° |
| 2026-04-22 19:03 | 12.88573 | -59.96086 | 10036 ft | 264 kts | 62° |
| 2026-04-22 19:04 | 12.89424 | -59.94438 | 9681 ft | 263 kts | 62° |
| 2026-04-22 19:04 | 12.90279 | -59.92783 | 9294 ft | 261 kts | 62° |
| 2026-04-22 19:04 | 12.91127 | -59.91139 | 8919 ft | 260 kts | 62° |
| 2026-04-22 19:04 | 12.91966 | -59.89511 | 8541 ft | 258 kts | 62° |
| 2026-04-22 19:05 | 12.92802 | -59.87889 | 8183 ft | 257 kts | 62° |
| 2026-04-22 19:05 | 12.93642 | -59.86260 | 7820 ft | 256 kts | 62° |
| 2026-04-22 19:05 | 12.94460 | -59.84675 | 7464 ft | 254 kts | 62° |
| 2026-04-22 19:05 | 12.95288 | -59.83069 | 7103 ft | 253 kts | 63° |
| 2026-04-22 19:06 | 12.96101 | -59.81496 | 6723 ft | 249 kts | 63° |
| 2026-04-22 19:06 | 12.96914 | -59.79919 | 6303 ft | 247 kts | 63° |
| 2026-04-22 19:06 | 12.97705 | -59.78382 | 5887 ft | 245 kts | 63° |
| 2026-04-22 19:07 | 12.99251 | -59.75377 | 5078 ft | 240 kts | 63° |
| 2026-04-22 19:07 | 13.00028 | -59.73867 | 4672 ft | 238 kts | 63° |
| 2026-04-22 19:07 | 13.00802 | -59.72363 | 4280 ft | 235 kts | 63° |
| 2026-04-22 19:07 | 13.01562 | -59.70890 | 3919 ft | 231 kts | 62° |
| 2026-04-22 19:08 | 13.02295 | -59.69460 | 3604 ft | 227 kts | 63° |
| 2026-04-22 19:08 | 13.02954 | -59.68020 | 3279 ft | 211 kts | 72° |
| 2026-04-22 19:08 | 13.03299 | -59.66650 | 2949 ft | 190 kts | 77° |
| 2026-04-22 19:08 | 13.03574 | -59.65322 | 2658 ft | 192 kts | 78° |
| 2026-04-22 19:09 | 13.03856 | -59.63973 | 2397 ft | 194 kts | 77° |
| 2026-04-22 19:09 | 13.04152 | -59.62634 | 2151 ft | 188 kts | 77° |
| 2026-04-22 19:09 | 13.04445 | -59.61407 | 2005 ft | 169 kts | 76° |
| 2026-04-22 19:09 | 13.04714 | -59.60306 | 1962 ft | 151 kts | 76° |
| 2026-04-22 19:11 | 13.04724 | -59.60267 | 1960 ft | 150 kts | 76° |
| 2026-04-22 19:11 | 13.04850 | -59.59777 | 1751 ft | 156 kts | 73° |
| 2026-04-22 19:11 | 13.05233 | -59.58602 | 659 ft | 199 kts | 69° |
| 2026-04-22 19:12 | 13.05405 | -59.58176 | 638 ft | 188 kts | 66° |
| 2026-04-22 19:12 | 13.05672 | -59.57513 | 760 ft | 167 kts | 72° |
| 2026-04-22 19:12 | 13.05777 | -59.57154 | 823 ft | 160 kts | 75° |